createdAt,value
2022-07-31T00:00:19.124Z,65387.91
2022-07-31T00:02:46.688Z,100556.00
2022-07-31T00:05:14.293Z,65387.91
2022-07-31T00:07:43.129Z,65387.91
2022-07-31T00:10:11.089Z,65387.91
2022-07-31T00:12:38.500Z,65387.91
2022-07-31T00:15:08.305Z,65387.91
2022-07-31T00:17:35.708Z,65387.91
2022-07-31T00:20:03.128Z,65387.91
2022-07-31T00:22:31.269Z,65387.91
2022-07-31T00:25:00.053Z,65387.91
2022-07-31T00:27:27.853Z,65387.91
2022-07-31T00:29:55.278Z,100520.09
2022-07-31T00:32:22.659Z,100519.22
2022-07-31T00:34:50.037Z,100523.25
2022-07-31T00:37:17.528Z,65387.91
2022-07-31T00:39:45.060Z,65387.91
2022-07-31T00:42:19.126Z,100521.25
2022-07-31T00:44:47.897Z,65387.91
2022-07-31T00:47:16.945Z,65387.91
2022-07-31T00:49:45.180Z,65387.91
2022-07-31T00:52:12.679Z,65387.91
2022-07-31T00:54:40.496Z,100513.47
2022-07-31T00:57:08.596Z,65387.91
2022-07-31T00:59:37.340Z,65387.91
2022-07-31T01:02:04.891Z,65387.91
2022-07-31T01:04:32.851Z,65387.91
2022-07-31T01:07:01.434Z,100499.78
2022-07-31T01:09:29.221Z,65387.91
2022-07-31T01:12:04.300Z,65387.91
2022-07-31T01:14:34.997Z,65387.91
2022-07-31T01:17:07.451Z,65387.91
2022-07-31T01:19:42.776Z,65387.91
2022-07-31T01:22:36.725Z,65387.91
2022-07-31T01:25:12.855Z,65387.91
2022-07-31T01:27:58.184Z,65387.91
2022-07-31T01:30:32.891Z,100491.88
2022-07-31T01:33:05.717Z,100497.00
2022-07-31T01:35:39.889Z,100494.56
2022-07-31T01:38:13.976Z,100493.47
2022-07-31T01:40:44.777Z,100502.03
2022-07-31T01:43:15.961Z,100507.84
2022-07-31T01:45:48.402Z,100508.84
2022-07-31T01:48:17.124Z,100507.44
2022-07-31T01:50:47.202Z,100505.28
2022-07-31T01:53:18.684Z,100521.00
2022-07-31T01:56:01.887Z,100516.13
2022-07-31T01:58:35.585Z,100516.03
2022-07-31T02:01:08.696Z,100517.84
2022-07-31T02:03:43.505Z,100513.09
2022-07-31T02:06:14.225Z,100514.50
2022-07-31T02:08:44.811Z,100511.50
2022-07-31T02:11:13.954Z,100523.69
2022-07-31T02:13:41.872Z,100528.28
2022-07-31T02:16:10.757Z,100517.94
2022-07-31T02:18:38.540Z,100523.78
2022-07-31T02:21:06.285Z,100530.41
2022-07-31T02:23:34.831Z,100532.88
2022-07-31T02:26:04.308Z,100534.59
2022-07-31T02:28:35.645Z,100528.78
2022-07-31T02:31:03.819Z,100529.00
2022-07-31T02:33:33.477Z,100526.06
2022-07-31T02:36:02.636Z,100529.84
2022-07-31T02:38:33.450Z,100530.81
2022-07-31T02:41:04.716Z,100532.06
2022-07-31T02:43:34.718Z,100535.00
2022-07-31T02:46:02.619Z,100529.41
2022-07-31T02:48:30.466Z,100532.84
2022-07-31T02:50:59.514Z,100532.50
2022-07-31T02:53:27.249Z,100537.28
2022-07-31T02:55:54.877Z,100536.94
2022-07-31T02:58:22.352Z,100539.88
2022-07-31T03:00:59.259Z,100554.88
2022-07-31T03:03:27.569Z,100551.56
2022-07-31T03:05:55.092Z,100547.59
2022-07-31T03:08:23.950Z,100538.09
2022-07-31T03:10:51.547Z,100542.81
2022-07-31T03:13:20.723Z,100548.75
2022-07-31T03:15:50.169Z,100545.22
2022-07-31T03:18:21.511Z,100543.63
2022-07-31T03:20:51.739Z,100542.00
2022-07-31T03:23:21.841Z,100545.88
2022-07-31T03:25:51.585Z,100539.22
2022-07-31T03:28:20.428Z,100537.19
2022-07-31T03:30:48.777Z,100535.94
2022-07-31T03:33:16.207Z,100538.53
2022-07-31T03:35:44.559Z,100532.09
2022-07-31T03:38:42.398Z,100532.56
2022-07-31T03:41:01.329Z,100529.13
2022-07-31T03:43:44.006Z,100546.84
2022-07-31T03:46:17.033Z,100543.97
2022-07-31T03:48:44.966Z,100543.59
2022-07-31T03:51:13.191Z,100548.94
2022-07-31T03:53:40.956Z,100552.75
2022-07-31T03:56:10.975Z,100562.16
2022-07-31T03:58:38.832Z,100563.44
2022-07-31T04:01:10.388Z,100556.94
2022-07-31T04:03:39.514Z,100556.69
2022-07-31T04:06:07.573Z,100562.41
2022-07-31T04:08:35.027Z,100563.88
2022-07-31T04:11:02.499Z,100556.81
2022-07-31T04:13:31.264Z,100560.47
2022-07-31T04:15:58.678Z,100562.16
2022-07-31T04:18:26.084Z,100569.88
2022-07-31T04:20:53.499Z,100573.53
2022-07-31T04:23:21.152Z,65387.91
2022-07-31T04:25:55.279Z,100580.09
2022-07-31T04:28:22.683Z,100576.53
2022-07-31T04:30:51.485Z,100579.19
2022-07-31T04:33:18.937Z,100580.94
2022-07-31T04:35:46.566Z,100587.81
2022-07-31T04:38:14.332Z,100587.94
2022-07-31T04:40:41.788Z,100585.75
2022-07-31T04:43:09.325Z,100576.97
2022-07-31T04:45:37.636Z,100569.84
2022-07-31T04:48:07.343Z,100577.84
2022-07-31T04:50:34.759Z,100584.53
2022-07-31T04:53:02.173Z,100587.00
2022-07-31T04:55:29.740Z,100577.94
2022-07-31T04:57:57.185Z,100576.34
2022-07-31T05:00:24.800Z,100575.25
2022-07-31T05:02:52.261Z,100566.81
2022-07-31T05:05:21.170Z,100567.72
2022-07-31T05:07:48.661Z,100568.13
2022-07-31T05:10:30.074Z,100559.13
2022-07-31T05:12:57.549Z,100563.22
2022-07-31T05:15:24.977Z,100553.16
2022-07-31T05:17:52.486Z,100548.16
2022-07-31T05:20:21.325Z,100546.41
2022-07-31T05:22:48.731Z,100535.75
2022-07-31T05:25:16.153Z,100536.09
2022-07-31T05:27:43.592Z,100521.06
2022-07-31T05:30:12.632Z,100529.69
2022-07-31T05:32:40.057Z,100524.31
2022-07-31T05:35:07.924Z,100538.28
2022-07-31T05:37:38.617Z,100555.19
2022-07-31T05:40:07.350Z,100581.19
2022-07-31T05:42:34.743Z,100624.22
2022-07-31T05:45:02.150Z,100693.94
2022-07-31T05:47:39.862Z,100780.84
2022-07-31T05:50:08.977Z,100857.47
2022-07-31T05:52:38.137Z,100908.91
2022-07-31T05:55:06.524Z,100953.78
2022-07-31T05:57:34.656Z,100980.78
2022-07-31T06:00:04.006Z,100989.44
2022-07-31T06:02:31.757Z,100983.06
2022-07-31T06:04:59.608Z,100990.75
2022-07-31T06:07:28.574Z,100985.34
2022-07-31T06:09:57.559Z,100985.59
2022-07-31T06:12:25.116Z,100979.81
2022-07-31T06:14:52.566Z,100987.16
2022-07-31T06:17:20.108Z,100980.44
2022-07-31T06:19:47.590Z,100974.13
2022-07-31T06:22:15.029Z,100949.63
2022-07-31T06:24:42.652Z,100943.97
2022-07-31T06:27:24.093Z,100970.56
2022-07-31T06:29:59.718Z,100994.28
2022-07-31T06:32:27.111Z,101022.44
2022-07-31T06:34:54.491Z,101054.59
2022-07-31T06:37:21.907Z,101057.41
2022-07-31T06:39:55.495Z,101053.84
2022-07-31T06:42:26.842Z,101035.00
2022-07-31T06:44:54.742Z,101026.34
2022-07-31T06:47:25.807Z,101022.22
2022-07-31T06:49:54.217Z,101035.06
2022-07-31T06:52:21.942Z,101058.03
2022-07-31T06:54:49.521Z,101083.94
2022-07-31T06:57:17.099Z,101120.31
2022-07-31T06:59:46.101Z,101028.75
2022-07-31T07:02:13.475Z,100925.50
2022-07-31T07:05:00.029Z,100879.47
2022-07-31T07:07:31.935Z,100862.50
2022-07-31T07:09:59.665Z,100833.56
2022-07-31T07:12:27.142Z,100730.97
2022-07-31T07:14:57.932Z,100665.38
2022-07-31T07:17:28.975Z,100582.38
2022-07-31T07:19:57.093Z,100254.88
2022-07-31T07:22:31.853Z,100132.25
2022-07-31T07:25:00.579Z,100047.88
2022-07-31T07:27:28.101Z,99967.84
2022-07-31T07:29:57.365Z,99904.13
2022-07-31T07:32:25.187Z,99872.06
2022-07-31T07:34:59.532Z,99841.75
2022-07-31T07:37:28.542Z,99817.28
2022-07-31T07:39:56.092Z,99820.28
2022-07-31T07:42:23.592Z,99825.63
2022-07-31T07:44:51.027Z,99823.16
2022-07-31T07:47:20.239Z,99815.09
2022-07-31T07:49:47.797Z,99818.50
2022-07-31T07:52:15.560Z,99839.69
2022-07-31T07:54:43.748Z,99837.97
2022-07-31T07:57:15.568Z,99849.28
2022-07-31T07:59:43.049Z,99841.28
2022-07-31T08:02:12.212Z,99854.13
2022-07-31T08:04:44.637Z,99875.44
2022-07-31T08:07:14.623Z,99875.66
2022-07-31T08:09:42.032Z,99897.66
2022-07-31T08:12:09.482Z,99870.59
2022-07-31T08:14:36.883Z,99848.34
2022-07-31T08:17:04.297Z,99813.63
2022-07-31T08:19:31.685Z,99842.81
2022-07-31T08:22:00.389Z,99873.25
2022-07-31T08:24:28.221Z,99898.31
2022-07-31T08:27:13.505Z,99793.81
2022-07-31T08:29:42.929Z,99726.19
2022-07-31T08:32:10.973Z,99830.66
2022-07-31T08:34:42.266Z,99911.44
2022-07-31T08:37:52.310Z,100001.50
2022-07-31T08:39:59.670Z,100019.81
2022-07-31T08:42:27.119Z,99990.88
2022-07-31T08:44:55.069Z,99997.09
2022-07-31T08:47:26.481Z,100106.03
2022-07-31T08:49:54.511Z,100114.78
2022-07-31T08:52:27.381Z,100109.69
2022-07-31T08:54:55.832Z,100118.44
2022-07-31T08:57:23.493Z,100126.78
2022-07-31T08:59:52.368Z,100190.03
2022-07-31T09:02:20.315Z,100122.94
2022-07-31T09:04:52.412Z,100108.97
2022-07-31T09:07:20.366Z,100234.91
2022-07-31T09:09:51.127Z,100268.47
2022-07-31T09:12:33.498Z,100289.06
2022-07-31T09:15:02.124Z,100296.19
2022-07-31T09:17:34.471Z,100302.28
2022-07-31T09:20:02.638Z,100306.16
2022-07-31T09:22:31.773Z,100301.16
2022-07-31T09:25:16.012Z,100280.03
2022-07-31T09:27:43.728Z,100291.69
2022-07-31T09:30:12.171Z,100300.94
2022-07-31T09:32:39.601Z,100291.31
2022-07-31T09:35:09.809Z,100280.28
2022-07-31T09:37:37.479Z,100278.19
2022-07-31T09:40:06.303Z,100288.25
2022-07-31T09:42:46.056Z,100264.94
2022-07-31T09:45:20.673Z,100260.75
2022-07-31T09:47:48.713Z,100248.75
2022-07-31T09:50:24.681Z,100260.25
2022-07-31T09:52:59.558Z,100267.16
2022-07-31T09:55:27.451Z,100265.31
2022-07-31T09:57:57.963Z,100268.03
2022-07-31T10:00:26.856Z,100279.88
2022-07-31T10:02:55.869Z,100289.41
2022-07-31T10:05:24.951Z,100289.97
2022-07-31T10:07:54.168Z,100279.09
2022-07-31T10:10:23.131Z,100275.66
2022-07-31T10:12:53.706Z,100288.34
2022-07-31T10:15:24.771Z,100271.34
2022-07-31T10:17:53.554Z,100271.06
2022-07-31T10:20:24.567Z,100281.53
2022-07-31T10:22:58.883Z,100260.78
2022-07-31T10:25:28.576Z,100278.31
2022-07-31T10:27:58.607Z,100277.19
2022-07-31T10:30:28.688Z,100266.88
2022-07-31T10:32:56.523Z,100252.13
2022-07-31T10:35:23.988Z,100233.63
2022-07-31T10:38:01.637Z,100205.91
2022-07-31T10:40:37.629Z,100185.59
2022-07-31T10:43:19.863Z,100181.13
2022-07-31T10:45:50.217Z,100162.63
2022-07-31T10:48:18.021Z,100190.09
2022-07-31T10:50:46.003Z,100203.72
2022-07-31T10:53:15.225Z,100226.09
2022-07-31T10:55:43.596Z,100233.00
2022-07-31T10:58:12.468Z,100243.09
2022-07-31T11:00:40.433Z,100247.06
2022-07-31T11:03:16.394Z,100240.91
2022-07-31T11:06:02.575Z,100229.19
2022-07-31T11:08:41.804Z,100213.75
2022-07-31T11:11:09.865Z,100214.47
2022-07-31T11:13:47.054Z,100224.25
2022-07-31T11:16:14.541Z,100217.53
2022-07-31T11:18:45.999Z,100213.47
2022-07-31T11:21:36.292Z,100201.75
2022-07-31T11:24:03.887Z,100216.13
2022-07-31T11:26:41.734Z,100225.53
2022-07-31T11:30:01.488Z,100216.75
2022-07-31T11:32:01.195Z,100202.78
2022-07-31T11:34:29.935Z,100211.31
2022-07-31T11:36:57.612Z,100203.28
2022-07-31T11:39:36.322Z,100209.22
2022-07-31T11:42:04.490Z,100216.25
2022-07-31T11:44:32.148Z,100222.44
2022-07-31T11:46:59.587Z,100226.97
2022-07-31T11:49:39.159Z,100215.72
2022-07-31T11:52:31.090Z,100171.09
2022-07-31T11:55:09.402Z,100190.28
2022-07-31T11:57:51.339Z,100199.88
2022-07-31T12:00:29.667Z,100185.31
2022-07-31T12:02:58.334Z,100163.63
2022-07-31T12:05:38.201Z,100163.66
2022-07-31T12:08:09.128Z,100163.34
2022-07-31T12:10:36.942Z,100153.31
2022-07-31T12:13:04.380Z,100152.13
2022-07-31T12:15:32.141Z,100130.81
2022-07-31T12:18:04.997Z,100114.91
2022-07-31T12:20:37.029Z,100124.03
2022-07-31T12:23:06.682Z,100126.78
2022-07-31T12:25:42.993Z,100129.94
2022-07-31T12:28:10.975Z,100131.13
2022-07-31T12:30:38.629Z,100165.09
2022-07-31T12:33:07.414Z,100161.22
2022-07-31T12:35:56.459Z,100147.28
2022-07-31T12:38:45.272Z,100157.69
2022-07-31T12:41:14.645Z,100136.69
2022-07-31T12:43:50.951Z,100124.19
2022-07-31T12:46:21.143Z,100121.81
2022-07-31T12:48:48.599Z,100140.03
2022-07-31T12:51:16.798Z,100103.50
2022-07-31T12:53:45.523Z,100104.50
2022-07-31T12:56:14.669Z,100088.25
2022-07-31T12:58:42.065Z,100072.75
2022-07-31T13:01:09.570Z,100081.03
2022-07-31T13:03:45.995Z,100044.72
2022-07-31T13:06:14.255Z,100005.94
2022-07-31T13:08:43.701Z,100009.56
2022-07-31T13:11:11.215Z,100000.91
2022-07-31T13:13:39.984Z,99995.56
2022-07-31T13:16:07.467Z,99990.28
2022-07-31T13:18:35.688Z,99916.31
2022-07-31T13:21:03.114Z,99910.97
2022-07-31T13:23:30.766Z,99857.66
2022-07-31T13:25:59.689Z,99889.50
2022-07-31T13:28:27.156Z,99964.00
2022-07-31T13:30:55.890Z,99991.53
2022-07-31T13:33:25.577Z,99925.75
2022-07-31T13:35:53.045Z,99820.75
2022-07-31T13:38:20.435Z,99777.94
2022-07-31T13:41:05.581Z,99715.41
2022-07-31T13:43:33.158Z,99657.63
2022-07-31T13:46:01.893Z,99613.38
2022-07-31T13:48:29.289Z,99623.50
2022-07-31T13:50:56.769Z,99557.22
2022-07-31T13:53:24.169Z,99559.41
2022-07-31T13:55:51.590Z,99523.94
2022-07-31T13:58:18.994Z,99508.81
2022-07-31T14:00:46.943Z,99551.06
2022-07-31T14:03:18.499Z,99520.25
2022-07-31T14:05:49.348Z,99541.75
2022-07-31T14:08:32.976Z,99556.16
2022-07-31T14:11:04.593Z,99691.25
2022-07-31T14:13:42.581Z,99658.34
2022-07-31T14:16:10.157Z,99680.50
2022-07-31T14:18:38.870Z,99730.00
2022-07-31T14:21:07.969Z,99796.94
2022-07-31T14:23:40.507Z,99790.84
2022-07-31T14:26:08.500Z,99788.63
2022-07-31T14:28:36.361Z,99567.09
2022-07-31T14:31:03.797Z,99368.94
2022-07-31T14:33:31.251Z,99243.13
2022-07-31T14:36:00.058Z,99347.16
2022-07-31T14:38:27.926Z,99361.72
2022-07-31T14:40:55.672Z,99282.66
2022-07-31T14:43:23.148Z,99209.19
2022-07-31T14:45:51.939Z,99162.00
2022-07-31T14:48:19.569Z,99145.22
2022-07-31T14:50:46.977Z,99185.38
2022-07-31T14:53:15.708Z,99206.16
2022-07-31T14:55:43.091Z,99193.28
2022-07-31T14:58:10.514Z,99186.47
2022-07-31T15:00:38.212Z,99192.53
2022-07-31T15:03:05.603Z,99218.50
2022-07-31T15:06:41.348Z,99234.94
2022-07-31T15:08:21.882Z,99297.91
2022-07-31T15:10:49.351Z,99294.09
2022-07-31T15:13:16.737Z,99256.31
2022-07-31T15:15:45.220Z,99231.03
2022-07-31T15:18:12.695Z,99191.34
2022-07-31T15:20:40.079Z,99213.94
2022-07-31T15:23:07.573Z,99246.19
2022-07-31T15:25:38.692Z,99257.19
2022-07-31T15:28:06.359Z,99256.28
2022-07-31T15:30:33.793Z,99248.72
2022-07-31T15:33:01.210Z,99265.72
2022-07-31T15:35:28.775Z,99245.09
2022-07-31T15:37:58.809Z,99245.06
2022-07-31T15:40:26.377Z,99212.19
2022-07-31T15:42:55.312Z,99201.19
2022-07-31T15:45:22.895Z,99170.34
2022-07-31T15:47:50.326Z,99185.28
2022-07-31T15:50:20.303Z,99187.91
2022-07-31T15:52:47.838Z,99194.16
2022-07-31T15:55:15.481Z,99069.41
2022-07-31T15:57:42.908Z,99167.09
2022-07-31T16:00:13.962Z,99282.00
2022-07-31T16:02:42.546Z,99324.34
2022-07-31T16:05:22.173Z,99350.91
2022-07-31T16:08:31.995Z,99308.97
2022-07-31T16:10:49.065Z,99232.19
2022-07-31T16:13:18.819Z,99200.34
2022-07-31T16:15:47.562Z,99150.22
2022-07-31T16:18:18.548Z,99111.44
2022-07-31T16:20:46.328Z,99060.09
2022-07-31T16:23:13.733Z,99035.66
2022-07-31T16:25:41.113Z,98995.19
2022-07-31T16:28:08.603Z,98953.28
2022-07-31T16:30:36.141Z,98915.78
2022-07-31T16:33:04.859Z,98850.25
2022-07-31T16:35:32.279Z,98784.06
2022-07-31T16:37:59.685Z,98661.81
2022-07-31T16:40:30.898Z,98668.53
2022-07-31T16:43:02.050Z,98853.88
2022-07-31T16:45:30.732Z,99206.31
2022-07-31T16:47:58.319Z,99279.84
2022-07-31T16:50:27.382Z,99311.41
2022-07-31T16:52:55.494Z,99352.41
2022-07-31T16:56:00.249Z,99529.00
2022-07-31T16:58:12.071Z,99897.22
2022-07-31T17:00:39.701Z,99955.78
2022-07-31T17:03:58.559Z,100008.88
2022-07-31T17:05:56.824Z,100038.47
2022-07-31T17:08:24.293Z,100027.00
2022-07-31T17:10:54.577Z,100022.06
2022-07-31T17:13:22.661Z,100022.44
2022-07-31T17:15:50.197Z,100032.47
2022-07-31T17:18:17.658Z,100024.97
2022-07-31T17:20:47.001Z,100034.78
2022-07-31T17:23:15.948Z,100036.34
2022-07-31T17:25:43.443Z,99980.31
2022-07-31T17:28:14.829Z,99853.41
2022-07-31T17:30:44.794Z,99768.16
2022-07-31T17:33:12.272Z,99556.88
2022-07-31T17:35:40.059Z,99409.31
2022-07-31T17:38:07.599Z,99229.91
2022-07-31T17:40:44.482Z,99118.00
2022-07-31T17:43:12.570Z,99044.81
2022-07-31T17:47:07.566Z,98968.81
2022-07-31T17:48:28.948Z,98922.16
2022-07-31T17:50:56.774Z,98892.91
2022-07-31T17:53:24.570Z,98809.34
2022-07-31T17:56:13.460Z,98730.16
2022-07-31T17:58:40.855Z,98686.06
2022-07-31T18:01:08.621Z,98687.97
2022-07-31T18:03:36.089Z,98660.41
2022-07-31T18:06:04.434Z,98641.22
2022-07-31T18:08:31.882Z,98606.94
2022-07-31T18:10:59.331Z,98584.78
2022-07-31T18:13:28.057Z,98558.16
2022-07-31T18:15:55.441Z,98539.72
2022-07-31T18:18:22.872Z,98520.38
2022-07-31T18:20:50.360Z,98510.91
2022-07-31T18:23:17.803Z,98505.81
2022-07-31T18:25:45.241Z,98477.03
2022-07-31T18:28:12.679Z,98494.31
2022-07-31T18:30:42.141Z,98509.16
2022-07-31T18:33:10.816Z,98515.03
2022-07-31T18:35:38.256Z,98531.38
2022-07-31T18:38:05.676Z,98655.09
2022-07-31T18:40:33.400Z,98670.81
2022-07-31T18:43:00.969Z,98680.84
2022-07-31T18:45:28.588Z,98713.28
2022-07-31T18:47:57.375Z,98754.72
2022-07-31T18:51:00.843Z,98963.06
2022-07-31T18:53:12.928Z,99746.44
2022-07-31T18:55:40.470Z,100488.50
2022-07-31T18:58:08.997Z,100516.81
2022-07-31T19:00:36.622Z,100285.50
2022-07-31T19:03:05.532Z,100187.34
2022-07-31T19:05:32.934Z,100118.13
2022-07-31T19:08:00.358Z,100089.09
2022-07-31T19:10:29.395Z,100047.19
2022-07-31T19:12:58.848Z,100010.25
2022-07-31T19:15:26.276Z,100037.56
2022-07-31T19:17:54.157Z,100041.53
2022-07-31T19:20:56.657Z,100045.22
2022-07-31T19:23:15.917Z,100052.06
2022-07-31T19:26:03.186Z,100060.22
2022-07-31T19:28:31.529Z,100067.78
2022-07-31T19:30:59.173Z,100072.53
2022-07-31T19:33:26.784Z,100079.06
2022-07-31T19:36:01.307Z,100075.09
2022-07-31T19:38:29.818Z,100059.59
2022-07-31T19:40:57.225Z,100071.56
2022-07-31T19:43:24.735Z,100067.88
2022-07-31T19:46:02.436Z,100078.63
2022-07-31T19:48:40.368Z,100087.81
2022-07-31T19:51:09.477Z,100097.72
2022-07-31T19:53:37.285Z,100098.75
2022-07-31T19:56:06.230Z,100109.50
2022-07-31T19:58:34.504Z,100111.09
2022-07-31T20:01:02.171Z,100109.50
2022-07-31T20:03:29.949Z,100108.91
2022-07-31T20:05:58.201Z,100125.06
2022-07-31T20:08:32.809Z,100129.00
2022-07-31T20:11:03.351Z,100132.22
2022-07-31T20:13:31.559Z,100136.78
2022-07-31T20:15:59.261Z,100129.47
2022-07-31T20:18:28.920Z,100120.84
2022-07-31T20:20:57.956Z,100126.81
2022-07-31T20:23:27.317Z,100125.19
2022-07-31T20:25:55.999Z,100127.09
2022-07-31T20:28:23.816Z,100121.94
2022-07-31T20:30:51.425Z,100130.53
2022-07-31T20:33:19.335Z,100137.13
2022-07-31T20:35:49.428Z,100134.59
2022-07-31T20:38:18.893Z,100132.78
2022-07-31T20:40:53.380Z,100137.13
2022-07-31T20:43:23.614Z,100135.50
2022-07-31T20:45:51.354Z,100129.00
2022-07-31T20:48:18.838Z,100130.59
2022-07-31T20:50:47.696Z,100127.69
2022-07-31T20:53:15.860Z,100125.78
2022-07-31T20:55:46.666Z,100126.75
2022-07-31T20:58:15.867Z,65387.91
2022-07-31T21:01:02.560Z,100215.56
2022-07-31T21:03:30.030Z,100120.09
2022-07-31T21:05:57.446Z,100121.19
2022-07-31T21:08:24.916Z,100114.41
2022-07-31T21:10:52.393Z,100125.50
2022-07-31T21:13:21.232Z,100125.22
2022-07-31T21:15:51.277Z,65387.91
2022-07-31T21:18:19.894Z,65387.91
2022-07-31T21:20:52.273Z,65387.91
2022-07-31T21:23:21.986Z,65387.91
2022-07-31T21:25:49.775Z,65387.91
2022-07-31T21:28:18.701Z,65387.91
2022-07-31T21:30:48.515Z,65387.91
2022-07-31T21:33:16.110Z,65387.91
2022-07-31T21:35:44.163Z,65387.91
2022-07-31T21:38:12.580Z,65387.91
2022-07-31T21:40:41.142Z,65387.91
2022-07-31T21:43:09.615Z,65387.91
2022-07-31T21:45:50.898Z,65387.91
2022-07-31T21:48:27.428Z,65387.91
2022-07-31T21:50:56.183Z,65387.91
2022-07-31T21:53:24.633Z,65387.91
2022-07-31T21:55:52.554Z,65387.91
2022-07-31T21:58:20.289Z,65387.91
2022-07-31T22:00:47.887Z,65387.91
2022-07-31T22:03:15.431Z,65387.91
2022-07-31T22:06:02.006Z,65387.91
2022-07-31T22:08:29.397Z,65387.91
2022-07-31T22:10:56.781Z,65387.91
2022-07-31T22:13:24.682Z,65387.91
2022-07-31T22:15:59.657Z,65387.91
2022-07-31T22:18:28.246Z,65387.91
2022-07-31T22:20:57.561Z,65387.91
2022-07-31T22:23:25.271Z,65387.91
2022-07-31T22:25:52.813Z,65387.91
2022-07-31T22:28:22.885Z,65387.91
2022-07-31T22:30:50.882Z,65387.91
2022-07-31T22:33:18.837Z,65387.91
2022-07-31T22:35:58.531Z,65387.91
2022-07-31T22:38:29.827Z,65387.91
2022-07-31T22:40:57.660Z,65387.91
2022-07-31T22:44:10.268Z,65387.91
2022-07-31T22:46:13.700Z,65387.91
2022-07-31T22:48:41.418Z,65387.91
2022-07-31T22:51:10.725Z,65387.91
2022-07-31T22:53:43.430Z,65387.91
2022-07-31T22:56:11.528Z,65387.91
2022-07-31T22:58:39.305Z,65387.91
2022-07-31T23:01:06.748Z,65387.91
2022-07-31T23:03:34.175Z,65387.91
2022-07-31T23:06:03.071Z,65387.91
2022-07-31T23:08:55.019Z,65387.91
2022-07-31T23:11:24.400Z,65387.91
2022-07-31T23:13:52.001Z,65387.91
2022-07-31T23:16:20.190Z,65387.91
2022-07-31T23:18:47.656Z,65387.91
2022-07-31T23:21:15.060Z,65387.91
2022-07-31T23:23:48.035Z,65387.91
2022-07-31T23:26:19.981Z,65387.91
2022-07-31T23:28:47.639Z,65387.91
2022-07-31T23:31:15.092Z,65387.91
2022-07-31T23:33:43.052Z,65387.91
2022-07-31T23:36:10.825Z,65387.91
2022-07-31T23:38:38.417Z,65387.91
2022-07-31T23:41:05.992Z,65387.91
2022-07-31T23:43:33.851Z,65387.91
2022-07-31T23:46:01.239Z,65387.91
2022-07-31T23:48:29.284Z,65387.91
2022-07-31T23:50:58.097Z,65387.91
2022-07-31T23:53:25.520Z,65387.91
2022-07-31T23:56:51.056Z,65387.91
2022-07-31T23:59:44.673Z,85328.53
